createdAt,value
2019-05-11T00:00:00.194Z,11.53
2019-05-11T00:02:29.026Z,11.53
2019-05-11T00:04:57.868Z,11.50
2019-05-11T00:07:26.673Z,11.44
2019-05-11T00:09:58.013Z,11.44
2019-05-11T00:12:26.138Z,11.38
2019-05-11T00:14:54.924Z,11.33
2019-05-11T00:17:24.331Z,11.29
2019-05-11T00:19:53.225Z,11.43
2019-05-11T00:22:22.031Z,11.52
2019-05-11T00:24:50.829Z,11.53
2019-05-11T00:27:19.705Z,11.58
2019-05-11T00:29:48.510Z,11.54
2019-05-11T00:32:17.384Z,11.54
2019-05-11T00:34:46.353Z,11.58
2019-05-11T00:37:15.204Z,11.69
2019-05-11T00:39:44.013Z,11.82
2019-05-11T00:42:12.996Z,11.84
2019-05-11T00:44:41.811Z,11.83
2019-05-11T00:47:10.612Z,11.76
2019-05-11T00:49:39.588Z,11.76
2019-05-11T00:52:08.389Z,11.74
2019-05-11T00:54:37.198Z,11.62
2019-05-11T00:57:06.250Z,11.53
2019-05-11T00:59:35.048Z,11.43
2019-05-11T01:02:03.843Z,11.33
2019-05-11T01:04:32.782Z,11.20
2019-05-11T01:07:01.626Z,11.10
2019-05-11T01:09:32.012Z,11.03
2019-05-11T01:12:00.939Z,10.90
2019-05-11T01:14:29.744Z,10.92
2019-05-11T01:16:58.739Z,10.88
2019-05-11T01:19:27.623Z,10.91
2019-05-11T01:21:56.421Z,10.85
2019-05-11T01:24:25.219Z,10.81
2019-05-11T01:26:54.078Z,10.75
2019-05-11T01:29:22.871Z,10.67
2019-05-11T01:31:51.676Z,10.63
2019-05-11T01:34:20.644Z,10.59
2019-05-11T01:36:49.448Z,10.59
2019-05-11T01:39:18.571Z,10.55
2019-05-11T01:41:47.536Z,10.46
2019-05-11T01:44:16.347Z,10.34
2019-05-11T01:46:45.282Z,10.28
2019-05-11T01:49:14.152Z,10.18
2019-05-11T01:51:42.956Z,10.07
2019-05-11T01:54:11.763Z,9.94
2019-05-11T01:56:40.735Z,9.85
2019-05-11T01:59:09.540Z,9.78
2019-05-11T02:01:38.344Z,9.72
2019-05-11T02:04:07.394Z,9.72
2019-05-11T02:06:36.215Z,9.67
2019-05-11T02:09:07.492Z,9.63
2019-05-11T02:11:38.004Z,9.58
2019-05-11T02:14:07.034Z,9.56
2019-05-11T02:16:38.885Z,9.60
2019-05-11T02:19:08.344Z,9.56
2019-05-11T02:21:37.142Z,9.57
2019-05-11T02:24:05.940Z,9.59
2019-05-11T02:26:34.916Z,9.63
2019-05-11T02:29:03.865Z,9.66
2019-05-11T02:31:32.692Z,9.63
2019-05-11T02:34:01.713Z,9.66
2019-05-11T02:36:30.513Z,9.73
2019-05-11T02:39:03.839Z,9.85
2019-05-11T02:41:36.076Z,9.83
2019-05-11T02:44:00.886Z,9.80
2019-05-11T02:46:30.152Z,9.86
2019-05-11T02:49:00.712Z,9.84
2019-05-11T02:51:30.856Z,9.83
2019-05-11T02:54:02.836Z,9.81
2019-05-11T02:56:31.818Z,9.80
2019-05-11T02:59:00.714Z,9.80
2019-05-11T03:01:31.128Z,9.75
2019-05-11T03:04:00.139Z,9.65
2019-05-11T03:06:28.986Z,9.53
2019-05-11T03:08:58.322Z,9.50
2019-05-11T03:11:27.313Z,9.48
2019-05-11T03:13:56.094Z,9.50
2019-05-11T03:16:24.902Z,9.59
2019-05-11T03:18:53.879Z,9.60
2019-05-11T03:21:22.673Z,9.64
2019-05-11T03:23:51.475Z,9.61
2019-05-11T03:26:20.331Z,9.57
2019-05-11T03:28:49.133Z,9.55
2019-05-11T03:31:17.942Z,9.61
2019-05-11T03:33:47.010Z,9.63
2019-05-11T03:36:15.811Z,9.65
2019-05-11T03:38:44.624Z,9.66
2019-05-11T03:41:13.592Z,9.68
2019-05-11T03:43:43.954Z,9.62
2019-05-11T03:46:12.750Z,9.61
2019-05-11T03:48:41.590Z,9.60
2019-05-11T03:51:10.587Z,9.78
2019-05-11T03:53:39.386Z,9.88
2019-05-11T03:56:08.334Z,10.00
2019-05-11T03:58:37.142Z,10.16
2019-05-11T04:01:05.944Z,10.21
2019-05-11T04:03:34.889Z,10.28
2019-05-11T04:06:03.696Z,10.35
2019-05-11T04:08:32.489Z,10.49
2019-05-11T04:11:01.956Z,10.63
2019-05-11T04:13:30.684Z,10.74
2019-05-11T04:15:59.406Z,10.90
2019-05-11T04:18:28.301Z,11.06
2019-05-11T04:20:58.568Z,11.12
2019-05-11T04:23:27.307Z,11.23
2019-05-11T04:25:58.006Z,11.42
2019-05-11T04:28:26.725Z,11.53
2019-05-11T04:30:55.455Z,11.62
2019-05-11T04:33:24.233Z,11.78
2019-05-11T04:35:52.960Z,11.89
2019-05-11T04:38:21.688Z,12.19
2019-05-11T04:40:50.769Z,12.37
2019-05-11T04:43:19.493Z,12.52
2019-05-11T04:45:48.219Z,12.54
2019-05-11T04:48:17.099Z,12.59
2019-05-11T04:50:45.817Z,12.67
2019-05-11T04:53:14.655Z,12.78
2019-05-11T04:55:43.507Z,12.90
2019-05-11T04:58:12.225Z,13.09
2019-05-11T05:00:42.070Z,13.39
2019-05-11T05:03:10.915Z,13.95
2019-05-11T05:05:39.629Z,14.34
2019-05-11T05:08:09.928Z,14.69
2019-05-11T05:10:39.190Z,15.07
2019-05-11T05:13:10.466Z,15.28
2019-05-11T05:15:38.363Z,15.74
2019-05-11T05:18:07.267Z,16.07
2019-05-11T05:20:35.996Z,16.47
2019-05-11T05:23:04.718Z,16.67
2019-05-11T05:25:33.602Z,17.02
2019-05-11T05:28:02.323Z,17.35
2019-05-11T05:30:31.650Z,17.71
2019-05-11T05:33:00.497Z,17.85
2019-05-11T05:35:29.214Z,18.21
2019-05-11T05:37:57.937Z,18.31
2019-05-11T05:40:26.806Z,18.44
2019-05-11T05:42:56.480Z,18.63
2019-05-11T05:45:25.214Z,18.88
2019-05-11T05:47:54.126Z,19.04
2019-05-11T05:50:22.835Z,19.20
2019-05-11T05:52:51.554Z,19.22
2019-05-11T05:55:20.439Z,19.13
2019-05-11T05:57:49.162Z,18.92
2019-05-11T06:00:18.087Z,19.00
2019-05-11T06:02:48.334Z,19.03
2019-05-11T06:05:17.063Z,19.06
2019-05-11T06:07:45.763Z,19.16
2019-05-11T06:10:14.938Z,19.43
2019-05-11T06:12:43.662Z,19.59
2019-05-11T06:15:12.591Z,19.58
2019-05-11T06:17:41.349Z,19.60
2019-05-11T06:20:10.546Z,19.47
2019-05-11T06:22:39.248Z,19.44
2019-05-11T06:25:08.330Z,19.38
2019-05-11T06:27:37.051Z,19.60
2019-05-11T06:30:08.906Z,19.62
2019-05-11T06:32:37.776Z,19.69
2019-05-11T06:35:08.312Z,19.95
2019-05-11T06:37:37.045Z,20.21
2019-05-11T06:40:09.108Z,20.36
2019-05-11T06:42:37.842Z,20.34
2019-05-11T06:45:10.122Z,20.56
2019-05-11T06:47:38.885Z,20.68
2019-05-11T06:50:08.020Z,20.77
2019-05-11T06:52:36.742Z,20.94
2019-05-11T06:55:09.532Z,21.11
2019-05-11T06:57:38.317Z,21.34
2019-05-11T07:00:07.471Z,21.47
2019-05-11T07:02:36.458Z,20.95
2019-05-11T07:05:06.989Z,21.28
2019-05-11T07:07:47.170Z,21.53
2019-05-11T07:10:07.136Z,21.56
2019-05-11T07:12:35.866Z,21.69
2019-05-11T07:15:06.400Z,22.02
2019-05-11T07:17:35.242Z,22.19
2019-05-11T07:20:05.262Z,22.22
2019-05-11T07:22:33.982Z,22.18
2019-05-11T07:25:02.742Z,22.24
2019-05-11T07:27:31.455Z,22.22
2019-05-11T07:30:00.176Z,22.33
2019-05-11T07:32:29.455Z,22.39
2019-05-11T07:34:58.270Z,22.60
2019-05-11T07:37:27.965Z,22.40
2019-05-11T07:39:58.054Z,22.68
2019-05-11T07:42:28.561Z,22.78
2019-05-11T07:44:58.214Z,22.91
2019-05-11T07:47:27.888Z,23.13
2019-05-11T07:49:58.069Z,23.05
2019-05-11T07:52:28.731Z,22.24
2019-05-11T07:54:58.101Z,21.76
2019-05-11T07:57:28.441Z,21.33
2019-05-11T07:59:58.837Z,21.63
2019-05-11T08:02:29.266Z,22.34
2019-05-11T08:04:58.765Z,22.98
2019-05-11T08:07:28.491Z,22.69
2019-05-11T08:09:58.709Z,22.26
2019-05-11T08:12:28.451Z,22.46
2019-05-11T08:15:05.682Z,22.34
2019-05-11T08:17:28.638Z,22.15
2019-05-11T08:19:58.143Z,21.82
2019-05-11T08:22:28.413Z,21.55
2019-05-11T08:24:58.602Z,21.70
2019-05-11T08:27:28.595Z,21.67
2019-05-11T08:29:58.063Z,22.24
2019-05-11T08:32:28.671Z,23.04
2019-05-11T08:34:58.097Z,22.93
2019-05-11T08:37:28.363Z,22.47
2019-05-11T08:39:58.549Z,22.11
2019-05-11T08:42:28.953Z,22.10
2019-05-11T08:45:14.798Z,22.25
2019-05-11T08:47:28.493Z,22.62
2019-05-11T08:53:09.196Z,22.70
2019-05-11T08:55:38.383Z,22.05
2019-05-11T08:58:07.903Z,21.79
2019-05-11T09:00:38.911Z,21.56
2019-05-11T09:03:08.541Z,21.58
2019-05-11T09:05:38.486Z,22.42
2019-05-11T09:08:08.218Z,23.08
2019-05-11T09:10:39.694Z,23.39
2019-05-11T09:13:08.122Z,23.80
2019-05-11T09:15:40.496Z,24.03
2019-05-11T09:18:08.413Z,24.32
2019-05-11T09:20:37.917Z,24.57
2019-05-11T09:23:08.168Z,24.63
2019-05-11T09:25:38.516Z,25.04
2019-05-11T09:28:08.586Z,24.30
2019-05-11T09:30:37.862Z,23.33
2019-05-11T09:33:08.570Z,23.48
2019-05-11T09:35:49.639Z,24.29
2019-05-11T09:38:08.131Z,24.90
2019-05-11T09:40:38.568Z,25.32
2019-05-11T09:43:08.559Z,24.99
2019-05-11T09:45:47.495Z,24.48
2019-05-11T09:48:08.743Z,23.73
2019-05-11T09:50:38.842Z,22.94
2019-05-11T09:53:08.482Z,23.43
2019-05-11T09:55:38.858Z,24.38
2019-05-11T09:58:08.495Z,24.37
2019-05-11T10:00:38.823Z,25.03
2019-05-11T10:03:08.346Z,25.54
2019-05-11T10:05:38.245Z,25.50
2019-05-11T10:08:07.965Z,24.47
2019-05-11T10:10:38.294Z,24.12
2019-05-11T10:13:08.070Z,23.83
2019-05-11T10:15:38.556Z,23.75
2019-05-11T10:18:08.226Z,24.12
2019-05-11T10:20:39.258Z,24.82
2019-05-11T10:23:08.382Z,25.27
2019-05-11T10:25:39.066Z,25.70
2019-05-11T10:28:08.690Z,25.92
2019-05-11T10:30:38.612Z,25.98
2019-05-11T10:33:08.302Z,26.36
2019-05-11T10:35:37.837Z,26.13
2019-05-11T10:38:09.023Z,26.25
2019-05-11T10:40:38.779Z,26.52
2019-05-11T10:43:08.016Z,26.55
2019-05-11T10:45:38.419Z,26.64
2019-05-11T10:48:08.858Z,26.37
2019-05-11T10:50:38.216Z,25.94
2019-05-11T10:53:08.006Z,26.13
2019-05-11T10:55:38.648Z,25.82
2019-05-11T10:58:08.600Z,25.77
2019-05-11T11:00:38.878Z,25.98
2019-05-11T11:03:08.541Z,26.50
2019-05-11T11:05:38.426Z,27.16
2019-05-11T11:08:08.253Z,27.14
2019-05-11T11:10:37.894Z,26.65
2019-05-11T11:13:08.332Z,25.78
2019-05-11T11:15:38.076Z,25.06
2019-05-11T11:18:08.620Z,24.68
2019-05-11T11:20:38.398Z,25.37
2019-05-11T11:23:08.806Z,25.75
2019-05-11T11:25:37.737Z,25.95
2019-05-11T11:28:08.451Z,26.73
2019-05-11T11:30:37.842Z,26.73
2019-05-11T11:33:08.020Z,26.78
2019-05-11T11:35:38.486Z,26.88
2019-05-11T11:38:08.673Z,26.95
2019-05-11T11:40:38.676Z,26.78
2019-05-11T11:43:08.625Z,26.69
2019-05-11T11:45:40.816Z,26.90
2019-05-11T11:48:09.544Z,26.78
2019-05-11T11:50:38.565Z,27.24
2019-05-11T11:53:08.429Z,27.41
2019-05-11T11:55:39.008Z,26.98
2019-05-11T11:58:08.397Z,27.67
2019-05-11T12:00:39.179Z,27.67
2019-05-11T12:03:08.119Z,26.61
2019-05-11T12:05:38.645Z,26.42
2019-05-11T12:08:08.348Z,25.92
2019-05-11T12:10:37.972Z,25.70
2019-05-11T12:13:08.623Z,26.02
2019-05-11T12:15:38.760Z,26.44
2019-05-11T12:18:08.224Z,26.94
2019-05-11T12:20:38.930Z,26.89
2019-05-11T12:23:08.735Z,27.24
2019-05-11T12:25:40.496Z,27.02
2019-05-11T12:28:08.232Z,27.11
2019-05-11T12:30:39.223Z,27.20
2019-05-11T12:33:08.346Z,27.12
2019-05-11T12:35:37.756Z,26.89
2019-05-11T12:38:07.760Z,27.32
2019-05-11T12:40:38.703Z,27.19
2019-05-11T12:43:08.161Z,27.35
2019-05-11T12:45:37.655Z,27.75
2019-05-11T12:48:08.832Z,27.70
2019-05-11T12:50:37.883Z,27.56
2019-05-11T12:53:08.018Z,27.93
2019-05-11T12:55:37.995Z,27.75
2019-05-11T12:58:08.613Z,28.08
2019-05-11T13:00:39.137Z,27.95
2019-05-11T13:03:08.227Z,28.08
2019-05-11T13:05:37.834Z,28.65
2019-05-11T13:08:08.054Z,28.68
2019-05-11T13:10:37.629Z,29.00
2019-05-11T13:13:08.686Z,28.95
2019-05-11T13:15:38.749Z,28.87
2019-05-11T13:18:08.395Z,29.66
2019-05-11T13:20:37.828Z,30.44
2019-05-11T13:23:07.954Z,30.82
2019-05-11T13:25:38.765Z,29.95
2019-05-11T13:28:08.587Z,29.73
2019-05-11T13:30:38.181Z,28.79
2019-05-11T13:33:08.532Z,29.11
2019-05-11T13:35:37.747Z,29.46
2019-05-11T13:38:08.759Z,29.70
2019-05-11T13:40:38.205Z,30.42
2019-05-11T13:43:08.343Z,30.22
2019-05-11T13:45:38.767Z,29.92
2019-05-11T13:48:08.417Z,30.15
2019-05-11T13:50:38.680Z,29.98
2019-05-11T13:53:07.871Z,30.78
2019-05-11T13:55:38.552Z,30.68
2019-05-11T13:58:08.292Z,29.99
2019-05-11T14:00:38.040Z,29.58
2019-05-11T14:03:08.322Z,29.54
2019-05-11T14:05:37.833Z,29.41
2019-05-11T14:08:08.189Z,29.20
2019-05-11T14:10:38.361Z,28.93
2019-05-11T14:13:08.828Z,29.29
2019-05-11T14:15:37.966Z,29.32
2019-05-11T14:18:09.381Z,29.27
2019-05-11T14:20:37.884Z,29.33
2019-05-11T14:23:07.711Z,29.22
2019-05-11T14:25:39.638Z,29.17
2019-05-11T14:28:09.026Z,29.01
2019-05-11T14:30:38.535Z,28.84
2019-05-11T14:33:08.769Z,29.29
2019-05-11T14:35:38.443Z,29.12
2019-05-11T14:38:08.099Z,28.74
2019-05-11T14:40:38.717Z,28.97
2019-05-11T14:43:08.378Z,28.81
2019-05-11T14:45:38.108Z,29.22
2019-05-11T14:48:22.192Z,29.26
2019-05-11T14:50:38.579Z,29.54
2019-05-11T14:53:08.602Z,29.49
2019-05-11T14:55:38.065Z,29.20
2019-05-11T14:58:08.278Z,29.65
2019-05-11T15:00:39.182Z,29.97
2019-05-11T15:03:08.020Z,29.72
2019-05-11T15:05:37.904Z,29.77
2019-05-11T15:08:08.727Z,29.99
2019-05-11T15:10:38.289Z,29.88
2019-05-11T15:13:08.024Z,29.58
2019-05-11T15:15:39.262Z,29.75
2019-05-11T15:18:08.480Z,29.72
2019-05-11T15:20:38.762Z,29.56
2019-05-11T15:23:08.892Z,29.73
2019-05-11T15:25:38.351Z,29.77
2019-05-11T15:28:08.871Z,29.59
2019-05-11T15:30:38.139Z,29.55
2019-05-11T15:33:07.785Z,29.81
2019-05-11T15:35:37.745Z,30.04
2019-05-11T15:38:08.771Z,30.07
2019-05-11T15:40:38.282Z,30.07
2019-05-11T15:43:08.704Z,29.42
2019-05-11T15:45:38.141Z,28.58
2019-05-11T15:48:08.417Z,27.72
2019-05-11T15:50:39.735Z,26.78
2019-05-11T15:53:09.675Z,25.98
2019-05-11T15:55:42.129Z,25.38
2019-05-11T15:58:08.832Z,25.00
2019-05-11T16:00:39.975Z,25.41
2019-05-11T16:03:08.393Z,25.70
2019-05-11T16:05:37.132Z,26.08
2019-05-11T16:08:08.407Z,25.82
2019-05-11T16:10:38.462Z,25.37
2019-05-11T16:13:08.950Z,24.78
2019-05-11T16:15:38.365Z,24.16
2019-05-11T16:18:08.324Z,23.70
2019-05-11T16:20:37.285Z,23.42
2019-05-11T16:23:06.113Z,23.47
2019-05-11T16:25:38.198Z,23.82
2019-05-11T16:28:07.867Z,24.10
2019-05-11T16:30:37.873Z,24.32
2019-05-11T16:33:08.675Z,24.31
2019-05-11T16:35:38.304Z,24.14
2019-05-11T16:38:08.179Z,23.81
2019-05-11T16:40:38.684Z,23.46
2019-05-11T16:43:08.572Z,23.08
2019-05-11T16:45:37.788Z,22.71
2019-05-11T16:48:07.988Z,22.39
2019-05-11T16:50:38.359Z,22.01
2019-05-11T16:53:07.353Z,21.75
2019-05-11T16:55:37.694Z,21.51
2019-05-11T16:58:08.360Z,21.24
2019-05-11T17:00:39.349Z,21.03
2019-05-11T17:03:07.803Z,20.88
2019-05-11T17:05:38.245Z,20.70
2019-05-11T17:08:08.087Z,20.54
2019-05-11T17:10:36.973Z,20.37
2019-05-11T17:13:05.699Z,20.16
2019-05-11T17:15:34.487Z,19.97
2019-05-11T17:18:04.802Z,19.78
2019-05-11T17:20:34.431Z,19.65
2019-05-11T17:23:03.333Z,19.48
2019-05-11T17:25:32.081Z,19.29
2019-05-11T17:28:00.844Z,19.08
2019-05-11T17:30:29.736Z,18.89
2019-05-11T17:32:59.359Z,18.80
2019-05-11T17:35:28.275Z,18.67
2019-05-11T17:37:57.178Z,18.52
2019-05-11T17:40:28.322Z,18.39
2019-05-11T17:42:58.509Z,18.31
2019-05-11T17:45:26.900Z,18.26
2019-05-11T17:47:55.656Z,18.17
2019-05-11T17:50:24.380Z,18.04
2019-05-11T17:52:54.707Z,17.94
2019-05-11T17:55:23.422Z,17.89
2019-05-11T17:57:54.035Z,17.94
2019-05-11T18:00:22.997Z,17.95
2019-05-11T18:02:51.725Z,17.96
2019-05-11T18:05:20.455Z,17.86
2019-05-11T18:07:49.337Z,17.72
2019-05-11T18:10:18.449Z,17.52
2019-05-11T18:12:48.589Z,17.33
2019-05-11T18:15:18.814Z,17.22
2019-05-11T18:17:48.390Z,17.08
2019-05-11T18:20:21.393Z,16.95
2019-05-11T18:22:49.273Z,16.81
2019-05-11T18:25:18.559Z,16.62
2019-05-11T18:27:48.272Z,16.44
2019-05-11T18:30:17.513Z,16.32
2019-05-11T18:32:48.791Z,16.51
2019-05-11T18:35:19.066Z,16.29
2019-05-11T18:37:47.781Z,16.17
2019-05-11T18:40:18.624Z,15.89
2019-05-11T18:42:48.749Z,15.66
2019-05-11T18:45:18.886Z,15.50
2019-05-11T18:47:49.014Z,15.49
2019-05-11T18:50:29.812Z,15.53
2019-05-11T18:52:49.187Z,15.57
2019-05-11T18:55:18.941Z,15.58
2019-05-11T18:57:48.952Z,15.55
2019-05-11T19:00:19.755Z,15.60
2019-05-11T19:02:49.377Z,15.61
2019-05-11T19:05:18.702Z,15.64
2019-05-11T19:07:48.367Z,15.51
2019-05-11T19:10:17.435Z,15.30
2019-05-11T19:12:48.791Z,15.13
2019-05-11T19:15:18.760Z,14.98
2019-05-11T19:17:49.117Z,14.85
2019-05-11T19:20:19.331Z,14.79
2019-05-11T19:22:48.221Z,14.78
2019-05-11T19:25:18.209Z,14.74
2019-05-11T19:27:50.313Z,14.65
2019-05-11T19:30:18.557Z,14.62
2019-05-11T19:32:48.753Z,14.56
2019-05-11T19:35:20.884Z,14.49
2019-05-11T19:37:48.675Z,14.48
2019-05-11T19:40:17.670Z,14.47
2019-05-11T19:42:59.323Z,14.32
2019-05-11T19:45:29.461Z,14.19
2019-05-11T19:47:58.540Z,14.27
2019-05-11T19:50:27.518Z,14.06
2019-05-11T19:52:58.014Z,13.99
2019-05-11T19:55:28.505Z,13.91
2019-05-11T19:57:57.410Z,13.87
2019-05-11T20:00:26.131Z,13.84
2019-05-11T20:02:54.859Z,13.78
2019-05-11T20:05:23.720Z,13.78
2019-05-11T20:07:52.447Z,13.76
2019-05-11T20:10:21.182Z,13.63
2019-05-11T20:12:50.031Z,13.45
2019-05-11T20:15:19.324Z,13.32
2019-05-11T20:17:48.827Z,13.29
2019-05-11T20:20:18.720Z,13.38
2019-05-11T20:22:48.405Z,13.38
2019-05-11T20:25:18.505Z,13.43
2019-05-11T20:27:48.851Z,13.36
2019-05-11T20:30:19.060Z,13.30
2019-05-11T20:32:49.625Z,13.29
2019-05-11T20:35:20.222Z,13.32
2019-05-11T20:37:48.940Z,13.28
2019-05-11T20:40:18.354Z,13.25
2019-05-11T20:42:48.513Z,13.21
2019-05-11T20:45:18.727Z,13.11
2019-05-11T20:47:50.267Z,13.04
2019-05-11T20:50:19.148Z,12.96
2019-05-11T20:52:48.571Z,12.87
2019-05-11T20:55:18.222Z,12.83
2019-05-11T20:57:48.413Z,12.80
2019-05-11T21:00:18.661Z,12.82
2019-05-11T21:02:48.710Z,12.79
2019-05-11T21:05:18.383Z,12.74
2019-05-11T21:07:47.283Z,12.65
2019-05-11T21:10:16.209Z,12.60
2019-05-11T21:12:45.062Z,12.57
2019-05-11T21:15:13.973Z,12.56
2019-05-11T21:17:42.699Z,12.57
2019-05-11T21:20:11.798Z,12.60
2019-05-11T21:22:40.914Z,12.67
2019-05-11T21:25:10.811Z,12.66
2019-05-11T21:27:39.670Z,12.58
2019-05-11T21:30:10.483Z,12.43
2019-05-11T21:32:40.088Z,12.24
2019-05-11T21:35:09.543Z,12.15
2019-05-11T21:37:39.002Z,12.16
2019-05-11T21:40:08.989Z,12.23
2019-05-11T21:42:38.990Z,12.27
2019-05-11T21:45:09.744Z,12.32
2019-05-11T21:47:39.500Z,12.46
2019-05-11T21:50:09.851Z,12.45
2019-05-11T21:52:39.060Z,12.49
2019-05-11T21:55:09.821Z,12.57
2019-05-11T21:57:38.871Z,12.57
2019-05-11T22:00:10.513Z,12.46
2019-05-11T22:02:39.255Z,12.31
2019-05-11T22:05:09.372Z,12.26
2019-05-11T22:07:41.625Z,12.20
2019-05-11T22:10:09.847Z,12.16
2019-05-11T22:12:39.416Z,12.19
2019-05-11T22:15:09.834Z,12.24
2019-05-11T22:17:39.749Z,12.21
2019-05-11T22:20:10.080Z,12.22
2019-05-11T22:22:39.376Z,12.27
2019-05-11T22:25:09.499Z,12.30
2019-05-11T22:27:39.009Z,12.24
2019-05-11T22:30:08.872Z,12.25
2019-05-11T22:32:38.548Z,12.26
2019-05-11T22:35:08.781Z,12.16
2019-05-11T22:37:38.625Z,12.11
2019-05-11T22:40:08.835Z,12.09
2019-05-11T22:42:37.851Z,12.09
2019-05-11T22:45:10.788Z,12.18
2019-05-11T22:47:39.846Z,12.20
2019-05-11T22:50:09.599Z,12.23
2019-05-11T22:52:40.254Z,12.22
2019-05-11T22:55:11.958Z,12.20
2019-05-11T22:57:39.770Z,12.14
2019-05-11T23:00:10.455Z,12.12
2019-05-11T23:02:39.172Z,12.07
2019-05-11T23:05:08.821Z,12.05
2019-05-11T23:07:41.332Z,12.01
2019-05-11T23:10:10.019Z,11.87
2019-05-11T23:12:39.001Z,11.82
2019-05-11T23:15:14.889Z,11.86
2019-05-11T23:17:43.763Z,11.75
2019-05-11T23:20:13.686Z,11.38
2019-05-11T23:22:57.919Z,11.07
2019-05-11T23:25:19.786Z,10.94
2019-05-11T23:27:49.096Z,10.91
2019-05-11T23:30:19.743Z,10.80
2019-05-11T23:32:49.241Z,10.77
2019-05-11T23:35:19.083Z,10.92
2019-05-11T23:37:49.413Z,10.81
2019-05-11T23:40:21.557Z,10.70
2019-05-11T23:42:50.386Z,10.62
2019-05-11T23:45:19.531Z,10.59
2019-05-11T23:47:49.029Z,10.73
2019-05-11T23:50:19.157Z,10.77
2019-05-11T23:52:53.292Z,10.71
2019-05-11T23:55:19.539Z,10.73
2019-05-11T23:57:49.062Z,10.64
